Terminal Aerodrome Forecast
Issued by NWS

Home | Current Version | Previous Version | Graphics & Text | Print | Product List | Glossary On
Versions: 1 2 3 4 5 6 7 8 9 10 11 12 13 14 15 16 17 18 19 20 21 22 23 24
000
FTUS43 KMPX 251100
TAFAXN
TAF
KAXN 251138Z 2512/2612 28007KT P6SM OVC050
     FM251300 24005KT P6SM BKN030 OVC040
     FM251700 18006KT P6SM OVC020
     FM252300 14007KT P6SM SCT025 OVC050
     FM260300 10009KT 5SM -SN BR OVC025
     FM260800 05012KT 2SM -SN BR OVC015=

USA.gov is the U.S. government's official web portal to all federal, state and local government web resources and services.